Time;durP1;ratioP1;P1;durP2;ratioP2;P2;SDS_P1;SDS_P2;PMS_P1;PMS_P2;Temp;Humidity;BMP_temperature;BMP_pressure;BME280_temperature;BME280_humidity;BME280_pressure;Samples;Min_cycle;Max_cycle;Signal;HPM_P1;HPM_P2
2024/01/30 00:00:17;;;;;;;7.23;3.90;;;4.60;99.90;;;;;;4214959;28;20470;-77
2024/01/30 00:02:18;;;;;;;6.40;2.90;;;4.60;99.90;;;;;;4214813;28;20450;-77
2024/01/30 00:04:20;;;;;;;7.23;3.30;;;4.60;99.90;;;;;;4213826;28;21027;-77
2024/01/30 00:06:22;;;;;;;6.57;3.30;;;4.60;99.90;;;;;;4215047;28;20226;-77
2024/01/30 00:08:24;;;;;;;8.50;3.33;;;4.50;99.90;;;;;;4207369;28;21259;-76
2024/01/30 00:10:26;;;;;;;6.37;3.30;;;4.50;99.90;;;;;;4196059;28;20893;-77
2024/01/30 00:12:29;;;;;;;7.47;4.03;;;4.50;99.90;;;;;;4226398;28;20461;-77
2024/01/30 00:14:34;;;;;;;10.20;3.73;;;4.50;99.90;;;;;;4206966;28;20459;-76
2024/01/30 00:16:35;;;;;;;8.93;4.10;;;4.50;99.90;;;;;;4210976;28;20444;-76
2024/01/30 00:18:39;;;;;;;6.93;3.40;;;4.50;99.90;;;;;;4195116;28;20532;-76
2024/01/30 00:20:42;;;;;;;8.33;3.30;;;4.50;99.90;;;;;;4212452;28;20815;-76
2024/01/30 00:22:44;;;;;;;6.20;3.17;;;4.50;99.90;;;;;;4219743;28;20860;-76
2024/01/30 00:24:45;;;;;;;5.93;3.23;;;4.50;99.90;;;;;;4200774;28;20495;-76
2024/01/30 00:26:47;;;;;;;6.03;3.03;;;4.50;99.90;;;;;;4215249;28;20474;-76
2024/01/30 00:28:50;;;;;;;6.80;3.53;;;4.50;99.90;;;;;;4218606;28;20281;-76
2024/01/30 00:30:52;;;;;;;6.33;3.10;;;4.50;99.90;;;;;;4210610;28;21076;-76
2024/01/30 00:32:55;;;;;;;6.80;3.30;;;4.50;99.90;;;;;;4215193;28;20860;-76
2024/01/30 00:34:57;;;;;;;8.87;3.50;;;4.50;99.90;;;;;;4195618;28;20513;-76
2024/01/30 00:36:57;;;;;;;7.93;3.80;;;4.50;99.90;;;;;;4204705;28;20930;-76
2024/01/30 00:38:59;;;;;;;6.40;3.33;;;4.50;99.90;;;;;;4215067;28;20468;-76
2024/01/30 00:41:01;;;;;;;7.03;3.50;;;4.50;99.90;;;;;;4212846;28;20196;-76
2024/01/30 00:43:03;;;;;;;8.53;3.43;;;4.50;99.90;;;;;;4206232;28;20466;-76
2024/01/30 00:45:07;;;;;;;8.40;3.20;;;4.50;99.90;;;;;;4209457;28;20497;-77
2024/01/30 00:47:12;;;;;;;6.70;3.63;;;4.50;99.90;;;;;;4209853;28;21156;-77
2024/01/30 00:49:14;;;;;;;7.43;3.73;;;4.40;99.90;;;;;;4205668;28;20484;-77
2024/01/30 00:51:18;;;;;;;5.77;3.10;;;4.50;99.90;;;;;;4195905;28;20464;-77
2024/01/30 00:53:20;;;;;;;6.73;3.27;;;4.50;99.90;;;;;;4213317;28;20548;-77
2024/01/30 00:55:22;;;;;;;6.97;3.33;;;4.60;99.90;;;;;;4211226;28;20507;-76
2024/01/30 00:57:24;;;;;;;8.23;3.20;;;4.50;99.90;;;;;;4213678;28;20450;-76
2024/01/30 00:59:28;;;;;;;6.00;3.10;;;4.50;99.90;;;;;;4209468;28;20504;-76
2024/01/30 01:01:32;;;;;;;7.17;3.17;;;4.50;99.90;;;;;;4213050;28;20531;-77
2024/01/30 01:03:34;;;;;;;6.93;3.10;;;4.50;99.90;;;;;;4213292;28;20535;-77
2024/01/30 01:05:35;;;;;;;7.27;3.17;;;4.50;99.90;;;;;;4218872;28;20476;-76
2024/01/30 01:07:37;;;;;;;5.70;3.20;;;4.50;99.90;;;;;;4218143;28;20570;-77
2024/01/30 01:09:38;;;;;;;6.67;3.40;;;4.50;99.90;;;;;;4213030;28;20968;-76
2024/01/30 01:11:40;;;;;;;5.63;2.83;;;4.50;99.90;;;;;;4213304;28;20446;-77
2024/01/30 01:13:41;;;;;;;7.07;3.10;;;4.60;99.90;;;;;;4216190;28;20238;-77
2024/01/30 01:15:44;;;;;;;4.93;2.73;;;4.60;99.90;;;;;;4215998;28;20439;-76
2024/01/30 01:17:46;;;;;;;5.40;2.70;;;4.60;99.90;;;;;;4208937;28;20196;-76
2024/01/30 01:19:48;;;;;;;6.70;2.87;;;4.50;99.90;;;;;;4214788;28;20483;-76
2024/01/30 01:21:50;;;;;;;5.50;3.00;;;4.60;99.90;;;;;;4211949;28;21260;-76
2024/01/30 01:23:51;;;;;;;6.00;2.93;;;4.60;99.90;;;;;;4213377;28;20450;-76
2024/01/30 01:25:53;;;;;;;5.13;2.73;;;4.60;99.90;;;;;;4188389;28;20460;-76
2024/01/30 01:27:55;;;;;;;7.00;3.37;;;4.50;99.90;;;;;;4204653;28;20484;-76
2024/01/30 01:29:57;;;;;;;11.17;3.10;;;4.50;99.90;;;;;;4186117;28;20512;-76
2024/01/30 01:31:59;;;;;;;6.27;3.20;;;4.60;99.90;;;;;;4208949;28;21025;-76
2024/01/30 01:34:01;;;;;;;6.23;2.90;;;4.50;99.90;;;;;;4211480;28;20207;-76
2024/01/30 01:36:03;;;;;;;7.10;3.27;;;4.60;99.90;;;;;;4217147;28;20503;-76
2024/01/30 01:38:05;;;;;;;6.70;3.27;;;4.50;99.90;;;;;;4212430;28;20872;-74
2024/01/30 01:40:07;;;;;;;7.23;3.00;;;4.60;99.90;;;;;;4213605;28;20551;-76
2024/01/30 01:42:09;;;;;;;7.93;3.00;;;4.60;99.90;;;;;;4209187;28;20456;-76
2024/01/30 01:44:11;;;;;;;7.43;2.90;;;4.60;99.90;;;;;;4196100;28;20454;-76
2024/01/30 01:46:13;;;;;;;6.57;3.27;;;4.60;99.90;;;;;;4212606;28;20557;-76
2024/01/30 01:48:16;;;;;;;5.40;2.93;;;4.50;99.90;;;;;;4209518;28;20478;-76
2024/01/30 01:50:19;;;;;;;6.40;3.10;;;4.50;99.90;;;;;;4208678;28;20481;-76
2024/01/30 01:52:21;;;;;;;6.10;3.17;;;4.50;99.90;;;;;;4213791;28;20549;-76
2024/01/30 01:54:25;;;;;;;5.13;2.77;;;4.60;99.90;;;;;;4210708;28;20813;-76
2024/01/30 01:56:30;;;;;;;8.57;3.10;;;4.50;99.90;;;;;;4212819;28;20500;-76
2024/01/30 01:58:32;;;;;;;5.90;2.83;;;4.50;99.90;;;;;;4206136;28;20488;-76
2024/01/30 02:00:34;;;;;;;9.07;3.70;;;4.50;99.90;;;;;;4205631;28;20457;-75
2024/01/30 02:02:36;;;;;;;6.43;3.53;;;4.50;99.90;;;;;;4214241;28;20458;-76
2024/01/30 02:04:38;;;;;;;7.87;2.73;;;4.50;99.90;;;;;;4209654;28;20449;-76
2024/01/30 02:06:41;;;;;;;5.87;3.00;;;4.50;99.90;;;;;;4210832;28;20620;-76
2024/01/30 02:08:43;;;;;;;9.23;3.23;;;4.50;99.90;;;;;;4211995;28;20490;-76
2024/01/30 02:10:45;;;;;;;6.77;3.00;;;4.50;99.90;;;;;;4207342;28;20528;-76
2024/01/30 02:12:46;;;;;;;5.13;3.00;;;4.50;99.90;;;;;;4192083;28;20487;-76
2024/01/30 02:14:49;;;;;;;6.27;3.00;;;4.50;99.90;;;;;;4210489;28;20449;-76
2024/01/30 02:16:51;;;;;;;6.93;3.27;;;4.50;99.90;;;;;;4210049;28;20239;-76
2024/01/30 02:18:53;;;;;;;6.70;3.00;;;4.50;99.90;;;;;;4206809;28;20482;-76
2024/01/30 02:21:01;;;;;;;6.47;2.73;;;4.50;99.90;;;;;;4211210;28;20484;-76
2024/01/30 02:23:05;;;;;;;9.40;3.20;;;4.50;99.90;;;;;;4212877;28;20502;-76
2024/01/30 02:25:08;;;;;;;6.77;3.13;;;4.50;99.90;;;;;;4215977;28;20475;-76
2024/01/30 02:27:10;;;;;;;5.63;3.10;;;4.50;99.90;;;;;;4212332;28;20525;-76
2024/01/30 02:29:12;;;;;;;5.57;2.93;;;4.50;99.90;;;;;;4189874;28;20513;-76
2024/01/30 02:31:14;;;;;;;5.87;3.10;;;4.50;99.90;;;;;;4188222;28;20506;-76
2024/01/30 02:33:16;;;;;;;7.87;3.13;;;4.50;99.90;;;;;;4207903;28;20548;-76
2024/01/30 02:35:20;;;;;;;9.67;3.73;;;4.40;99.90;;;;;;4211904;28;20462;-76
2024/01/30 02:37:22;;;;;;;6.33;3.23;;;4.50;99.90;;;;;;4210456;28;20956;-76
2024/01/30 02:39:25;;;;;;;8.40;3.30;;;4.40;99.90;;;;;;4209605;28;20524;-76
2024/01/30 02:41:27;;;;;;;6.10;3.03;;;4.40;99.90;;;;;;4209880;28;20493;-76
2024/01/30 02:43:29;;;;;;;7.33;3.30;;;4.40;99.90;;;;;;4208894;28;20506;-76
2024/01/30 02:45:31;;;;;;;4.70;2.63;;;4.40;99.90;;;;;;4213332;28;20448;-76
2024/01/30 02:47:33;;;;;;;7.93;3.00;;;4.40;99.90;;;;;;4208659;28;20530;-76
2024/01/30 02:49:35;;;;;;;8.30;3.20;;;4.40;99.90;;;;;;4190690;28;20516;-76
2024/01/30 02:51:37;;;;;;;5.93;2.93;;;4.40;99.90;;;;;;4209429;28;20535;-75
2024/01/30 02:53:39;;;;;;;6.10;3.10;;;4.40;99.90;;;;;;4211171;28;20961;-76
2024/01/30 02:55:41;;;;;;;5.77;3.00;;;4.40;99.90;;;;;;4211463;28;20979;-76
2024/01/30 02:57:43;;;;;;;8.50;3.60;;;4.40;99.90;;;;;;4190847;28;20874;-76
2024/01/30 02:59:44;;;;;;;7.10;3.13;;;4.40;99.90;;;;;;4207263;28;20464;-76
2024/01/30 03:01:46;;;;;;;9.27;3.60;;;4.40;99.90;;;;;;4210509;28;20486;-76
2024/01/30 03:03:48;;;;;;;5.97;2.83;;;4.40;99.90;;;;;;4211886;28;20207;-76
2024/01/30 03:05:50;;;;;;;6.67;2.87;;;4.40;99.90;;;;;;4193334;28;20573;-76
2024/01/30 03:07:50;;;;;;;13.27;3.57;;;4.40;99.90;;;;;;4209660;28;21144;-76
2024/01/30 03:09:54;;;;;;;8.37;3.43;;;4.40;99.90;;;;;;4212274;28;20465;-76
2024/01/30 03:11:58;;;;;;;7.07;3.20;;;4.40;99.90;;;;;;4212377;28;20202;-76
2024/01/30 03:14:00;;;;;;;5.23;2.73;;;4.40;99.90;;;;;;4209173;28;20481;-76
2024/01/30 03:16:02;;;;;;;8.33;2.87;;;4.30;99.90;;;;;;4210520;28;20470;-77
2024/01/30 03:18:05;;;;;;;7.90;3.07;;;4.30;99.90;;;;;;4208885;28;20437;-77
2024/01/30 03:20:08;;;;;;;8.13;3.13;;;4.30;99.90;;;;;;4194127;28;20462;-76
2024/01/30 03:22:10;;;;;;;4.30;2.67;;;4.30;99.90;;;;;;4207813;28;20518;-76
2024/01/30 03:24:12;;;;;;;8.80;3.30;;;4.30;99.90;;;;;;4189330;28;20459;-77
2024/01/30 03:26:17;;;;;;;7.27;2.87;;;4.30;99.90;;;;;;4190985;28;20493;-75
2024/01/30 03:28:20;;;;;;;5.20;3.00;;;4.30;99.90;;;;;;4193346;28;20554;-77
2024/01/30 03:30:22;;;;;;;8.83;3.60;;;4.30;99.90;;;;;;4210605;28;20490;-76
2024/01/30 03:32:23;;;;;;;7.87;3.67;;;4.30;99.90;;;;;;4212985;28;20471;-76
2024/01/30 03:34:25;;;;;;;5.43;3.03;;;4.30;99.90;;;;;;4208900;28;20446;-78
2024/01/30 03:36:27;;;;;;;8.63;3.63;;;4.20;99.90;;;;;;4215529;28;20846;-78
2024/01/30 03:38:28;;;;;;;6.17;3.20;;;4.20;99.90;;;;;;4211093;28;20473;-76
2024/01/30 03:40:30;;;;;;;5.33;3.07;;;4.20;99.90;;;;;;4204178;28;20452;-77
2024/01/30 03:42:32;;;;;;;6.83;3.20;;;4.20;99.90;;;;;;4206757;28;20880;-77
2024/01/30 03:44:34;;;;;;;6.60;3.33;;;4.20;99.90;;;;;;4209789;28;20463;-77
2024/01/30 03:46:36;;;;;;;8.43;3.60;;;4.20;99.90;;;;;;4202677;28;20535;-78
2024/01/30 03:48:39;;;;;;;8.13;3.27;;;4.10;99.90;;;;;;4215577;28;20550;-76
2024/01/30 03:50:41;;;;;;;6.40;3.60;;;4.20;99.90;;;;;;4215066;28;20449;-76
2024/01/30 03:52:42;;;;;;;7.73;3.40;;;4.20;99.90;;;;;;4212186;28;20882;-76
2024/01/30 03:54:44;;;;;;;6.70;3.30;;;4.20;99.90;;;;;;4202434;28;20457;-77
2024/01/30 03:56:46;;;;;;;7.13;3.80;;;4.20;99.90;;;;;;4203756;28;21300;-77
2024/01/30 03:58:48;;;;;;;9.10;3.60;;;4.10;99.90;;;;;;4211053;28;20463;-77
2024/01/30 04:00:52;;;;;;;6.97;3.40;;;4.10;99.90;;;;;;4207876;28;20451;-77
2024/01/30 04:02:53;;;;;;;5.47;2.73;;;4.10;99.90;;;;;;4191865;28;20456;-77
2024/01/30 04:04:55;;;;;;;8.40;3.53;;;4.10;99.90;;;;;;4207574;28;20453;-77
2024/01/30 04:06:57;;;;;;;8.57;3.80;;;4.00;99.90;;;;;;4212711;28;20286;-76
2024/01/30 04:08:59;;;;;;;8.13;3.67;;;4.00;99.90;;;;;;4196595;28;20497;-76
2024/01/30 04:11:03;;;;;;;5.07;3.10;;;4.00;99.90;;;;;;4208143;28;20446;-78
2024/01/30 04:13:05;;;;;;;8.43;3.57;;;4.00;99.90;;;;;;4206562;28;20452;-76
2024/01/30 04:15:07;;;;;;;10.30;3.60;;;4.00;99.90;;;;;;4213124;28;20807;-76
2024/01/30 04:17:11;;;;;;;8.27;3.70;;;4.00;99.90;;;;;;4210206;28;20532;-76
2024/01/30 04:19:11;;;;;;;8.80;3.70;;;4.00;99.90;;;;;;4204397;28;20476;-76
2024/01/30 04:21:13;;;;;;;5.90;3.40;;;4.00;99.90;;;;;;4205087;28;20453;-76
2024/01/30 04:23:15;;;;;;;7.17;3.47;;;4.00;99.90;;;;;;4211306;28;20230;-76
2024/01/30 04:25:17;;;;;;;9.97;3.83;;;4.00;99.90;;;;;;4194624;28;20445;-76
2024/01/30 04:27:19;;;;;;;8.37;3.87;;;4.00;99.90;;;;;;4215826;28;20978;-76
2024/01/30 04:29:22;;;;;;;5.77;3.40;;;4.20;99.90;;;;;;4210731;28;20468;-76
2024/01/30 04:31:24;;;;;;;6.67;3.60;;;3.90;99.90;;;;;;4208120;28;20476;-76
2024/01/30 04:33:27;;;;;;;8.30;3.70;;;3.90;99.90;;;;;;4209136;28;20478;-76
2024/01/30 04:35:29;;;;;;;8.10;3.60;;;3.90;99.90;;;;;;4211174;28;20489;-76
2024/01/30 04:37:31;;;;;;;5.80;3.40;;;3.90;99.90;;;;;;4206742;28;20539;-77
2024/01/30 04:39:34;;;;;;;7.77;3.80;;;3.90;99.90;;;;;;4212227;28;20500;-76
2024/01/30 04:41:35;;;;;;;8.17;3.23;;;4.00;99.90;;;;;;4212453;28;20493;-77
2024/01/30 04:43:37;;;;;;;11.53;4.07;;;4.00;99.90;;;;;;4213759;28;20451;-79
2024/01/30 04:45:39;;;;;;;9.53;3.87;;;4.00;99.90;;;;;;4214518;28;20893;-76
2024/01/30 04:47:41;;;;;;;7.10;3.83;;;4.00;99.90;;;;;;4205631;28;20469;-76
2024/01/30 04:49:44;;;;;;;6.10;3.23;;;4.00;99.90;;;;;;4212124;28;20479;-76
2024/01/30 04:51:46;;;;;;;6.40;3.30;;;4.00;99.90;;;;;;4210095;28;20441;-76
2024/01/30 04:53:48;;;;;;;9.23;3.67;;;3.90;99.90;;;;;;4208026;28;20498;-77
2024/01/30 04:55:49;;;;;;;8.03;3.53;;;3.90;99.90;;;;;;4206108;28;20568;-76
2024/01/30 04:57:51;;;;;;;8.67;4.13;;;3.90;99.90;;;;;;4205719;28;20918;-76
2024/01/30 04:59:53;;;;;;;8.30;3.70;;;3.90;99.90;;;;;;4214506;28;20783;-76
2024/01/30 05:01:55;;;;;;;8.23;3.60;;;3.90;99.90;;;;;;4195113;28;20497;-76
2024/01/30 05:03:57;;;;;;;9.63;3.70;;;3.90;99.90;;;;;;4208132;28;21171;-76
2024/01/30 05:06:01;;;;;;;6.73;3.63;;;3.90;99.90;;;;;;4210328;28;20972;-76
2024/01/30 05:08:03;;;;;;;5.80;3.50;;;3.90;99.90;;;;;;4213544;28;20846;-76
2024/01/30 05:10:05;;;;;;;8.80;3.67;;;3.90;99.90;;;;;;4205395;28;20587;-76
2024/01/30 05:12:08;;;;;;;7.07;3.50;;;3.90;99.90;;;;;;4207918;28;20464;-77
2024/01/30 05:14:10;;;;;;;7.90;3.93;;;3.90;99.90;;;;;;4210301;28;20813;-77
2024/01/30 05:16:12;;;;;;;11.33;5.07;;;3.80;99.90;;;;;;4209642;28;20822;-77
2024/01/30 05:18:14;;;;;;;12.77;5.20;;;3.80;99.90;;;;;;4210182;28;20510;-77
2024/01/30 05:20:17;;;;;;;7.00;3.60;;;3.80;99.90;;;;;;4208143;28;21002;-77
2024/01/30 05:22:20;;;;;;;8.70;3.90;;;3.90;99.90;;;;;;4208284;28;21119;-76
2024/01/30 05:24:22;;;;;;;7.47;3.70;;;3.90;99.90;;;;;;4212703;28;20459;-76
2024/01/30 05:26:24;;;;;;;8.70;3.80;;;3.90;99.90;;;;;;4209061;28;20488;-77
2024/01/30 05:28:26;;;;;;;6.70;3.47;;;3.90;99.90;;;;;;4191790;28;20223;-77
2024/01/30 05:30:28;;;;;;;6.90;3.83;;;3.90;99.90;;;;;;4212267;28;20457;-76
2024/01/30 05:32:30;;;;;;;8.40;3.87;;;3.90;99.90;;;;;;4205145;28;20476;-76
2024/01/30 05:34:32;;;;;;;7.50;3.70;;;3.90;99.90;;;;;;4213024;28;20487;-76
2024/01/30 05:36:34;;;;;;;7.60;3.43;;;3.90;99.90;;;;;;4211683;28;21008;-76
2024/01/30 05:38:38;;;;;;;7.00;3.70;;;3.90;99.90;;;;;;4208790;28;20446;-77
2024/01/30 05:40:40;;;;;;;7.20;3.67;;;3.90;99.90;;;;;;4203597;28;20511;-76
2024/01/30 05:42:41;;;;;;;12.13;3.83;;;3.90;99.90;;;;;;4209116;28;20438;-77
2024/01/30 05:44:46;;;;;;;7.40;3.70;;;3.90;99.90;;;;;;4212057;28;20523;-77
2024/01/30 05:46:48;;;;;;;9.90;4.20;;;3.90;99.90;;;;;;4209084;28;20459;-75
2024/01/30 05:48:50;;;;;;;7.47;3.80;;;3.90;99.90;;;;;;4207912;28;20580;-77
2024/01/30 05:50:52;;;;;;;7.47;3.53;;;3.90;99.90;;;;;;4209940;28;20479;-77
2024/01/30 05:52:54;;;;;;;10.23;4.00;;;3.90;99.90;;;;;;4212706;28;20939;-76
2024/01/30 05:54:57;;;;;;;8.13;3.73;;;3.90;99.90;;;;;;4208097;28;20437;-77
2024/01/30 05:56:59;;;;;;;7.47;3.67;;;3.90;99.90;;;;;;4209235;28;21002;-77
2024/01/30 05:59:00;;;;;;;9.03;3.97;;;3.90;99.90;;;;;;4211766;28;20480;-77
2024/01/30 06:01:02;;;;;;;7.77;3.80;;;3.60;99.90;;;;;;4217613;28;20881;-80
2024/01/30 06:03:04;;;;;;;10.33;4.13;;;3.90;99.90;;;;;;4214891;28;20205;-76
2024/01/30 06:05:07;;;;;;;6.40;3.90;;;3.80;99.90;;;;;;4209962;28;20471;-75
2024/01/30 06:07:11;;;;;;;7.47;3.97;;;3.80;99.90;;;;;;4192997;28;20487;-75
2024/01/30 06:09:14;;;;;;;7.77;3.90;;;3.90;99.90;;;;;;4186984;28;20862;-76
2024/01/30 06:11:17;;;;;;;9.40;4.03;;;3.90;99.90;;;;;;4210862;28;20978;-76
2024/01/30 06:13:18;;;;;;;8.67;3.93;;;3.90;99.90;;;;;;4213880;28;21116;-77
2024/01/30 06:15:20;;;;;;;7.67;4.13;;;3.90;99.90;;;;;;4207871;28;20445;-76
2024/01/30 06:17:22;;;;;;;9.33;4.43;;;3.80;99.90;;;;;;4210335;28;20209;-76
2024/01/30 06:19:24;;;;;;;11.53;4.33;;;3.80;99.90;;;;;;4216095;28;20550;-76
2024/01/30 06:21:26;;;;;;;14.93;4.60;;;3.90;99.90;;;;;;4209910;28;20985;-77
2024/01/30 06:23:28;;;;;;;9.83;4.20;;;3.90;99.90;;;;;;4210925;28;20883;-77
2024/01/30 06:25:30;;;;;;;9.70;4.20;;;4.00;99.90;;;;;;4211795;28;20440;-77
2024/01/30 06:27:33;;;;;;;9.17;4.03;;;3.80;99.90;;;;;;4211202;28;20462;-76
2024/01/30 06:29:35;;;;;;;8.23;3.80;;;3.90;99.90;;;;;;4203939;28;20555;-77
2024/01/30 06:31:41;;;;;;;9.10;4.50;;;3.80;99.90;;;;;;4211912;28;20507;-77
2024/01/30 06:33:43;;;;;;;7.97;4.00;;;3.90;99.90;;;;;;4212934;28;20539;-77
2024/01/30 06:35:47;;;;;;;9.87;4.40;;;3.80;99.90;;;;;;4210609;28;20449;-77
2024/01/30 06:37:49;;;;;;;8.30;4.30;;;3.80;99.90;;;;;;4210232;28;20456;-77
2024/01/30 06:39:52;;;;;;;10.40;4.37;;;3.80;99.90;;;;;;4211493;28;20530;-77
2024/01/30 06:41:54;;;;;;;8.73;4.07;;;3.80;99.90;;;;;;4207830;28;20776;-76
2024/01/30 06:43:57;;;;;;;8.57;3.83;;;3.80;99.90;;;;;;4206122;28;20519;-77
2024/01/30 06:46:01;;;;;;;7.77;4.10;;;3.80;99.90;;;;;;4210745;28;20483;-75
2024/01/30 06:48:03;;;;;;;8.23;4.13;;;3.80;99.90;;;;;;4212201;28;20962;-77
2024/01/30 06:50:06;;;;;;;8.53;3.60;;;3.80;99.90;;;;;;4193902;28;20535;-77
2024/01/30 06:52:08;;;;;;;8.63;4.03;;;3.80;99.90;;;;;;4209201;28;20467;-76
2024/01/30 06:54:10;;;;;;;7.93;3.97;;;3.80;99.90;;;;;;4210402;28;20456;-76
2024/01/30 06:56:11;;;;;;;7.90;3.93;;;3.80;99.90;;;;;;4213288;28;20932;-77
2024/01/30 06:58:13;;;;;;;7.23;3.80;;;3.80;99.90;;;;;;4209667;28;20830;-77
2024/01/30 07:00:18;;;;;;;8.50;4.00;;;3.80;99.90;;;;;;4211030;28;20521;-77
2024/01/30 07:02:20;;;;;;;13.63;4.07;;;3.80;99.90;;;;;;4208560;28;20479;-78
2024/01/30 07:04:22;;;;;;;8.40;4.17;;;3.80;99.90;;;;;;4214820;28;20447;-77
2024/01/30 07:06:24;;;;;;;9.20;4.07;;;3.80;99.90;;;;;;4192282;28;20490;-77
2024/01/30 07:08:26;;;;;;;8.70;4.73;;;3.70;99.90;;;;;;4209124;28;20821;-78
2024/01/30 07:10:27;;;;;;;7.83;3.87;;;3.80;99.90;;;;;;4210011;28;20480;-75
2024/01/30 07:12:29;;;;;;;8.43;3.90;;;3.80;99.90;;;;;;4209468;28;20448;-78
2024/01/30 07:14:31;;;;;;;7.33;3.87;;;3.90;99.90;;;;;;4210389;28;20209;-75
2024/01/30 07:16:34;;;;;;;10.10;3.90;;;3.80;99.90;;;;;;4205039;28;20838;-75
2024/01/30 07:18:36;;;;;;;9.20;4.30;;;3.80;99.90;;;;;;4189733;28;20477;-77
2024/01/30 07:20:42;;;;;;;11.43;3.83;;;3.80;99.90;;;;;;4211768;28;20462;-78
2024/01/30 07:22:44;;;;;;;12.47;4.73;;;3.80;99.90;;;;;;4215396;28;20492;-77
2024/01/30 07:24:47;;;;;;;10.57;4.57;;;3.80;99.90;;;;;;4212882;28;20540;-77
2024/01/30 07:26:49;;;;;;;6.97;3.57;;;3.80;99.90;;;;;;4207446;28;20518;-77
2024/01/30 07:28:51;;;;;;;9.60;4.10;;;3.90;99.90;;;;;;4207287;28;21094;-77
2024/01/30 07:30:53;;;;;;;7.73;4.40;;;3.90;99.90;;;;;;4207844;28;20460;-77
2024/01/30 07:32:57;;;;;;;10.73;3.80;;;3.90;99.90;;;;;;4206326;28;20464;-76
2024/01/30 07:34:59;;;;;;;9.20;3.80;;;3.90;99.90;;;;;;4207153;28;20448;-76
2024/01/30 07:37:01;;;;;;;12.80;4.87;;;3.90;99.90;;;;;;4191752;28;20469;-76
2024/01/30 07:39:03;;;;;;;8.17;3.90;;;3.90;99.90;;;;;;4206363;28;20476;-77
2024/01/30 07:41:05;;;;;;;10.43;4.23;;;3.90;99.90;;;;;;4208856;28;20454;-76
2024/01/30 07:43:07;;;;;;;9.23;4.20;;;4.00;99.90;;;;;;4196714;28;20454;-76
2024/01/30 07:45:09;;;;;;;11.00;4.40;;;4.00;99.90;;;;;;4195924;28;20469;-77
2024/01/30 07:47:11;;;;;;;9.80;4.10;;;4.00;99.90;;;;;;4209902;28;20568;-76
2024/01/30 07:49:15;;;;;;;9.83;4.63;;;4.10;99.90;;;;;;4212638;28;20567;-76
2024/01/30 07:51:16;;;;;;;8.73;4.17;;;4.10;99.90;;;;;;4192843;28;20542;-77
2024/01/30 07:53:18;;;;;;;9.77;4.10;;;4.10;99.90;;;;;;4212039;28;20563;-76
2024/01/30 07:55:21;;;;;;;11.47;4.30;;;4.20;99.90;;;;;;4211923;28;20503;-76
2024/01/30 07:57:28;;;;;;;10.47;4.37;;;4.20;99.90;;;;;;4184339;28;20455;-76
2024/01/30 07:59:30;;;;;;;8.63;4.60;;;4.20;99.90;;;;;;4215423;28;20465;-76
2024/01/30 08:01:34;;;;;;;10.67;4.43;;;4.30;99.90;;;;;;4208594;28;20495;-77
2024/01/30 08:03:36;;;;;;;12.57;4.80;;;4.30;99.90;;;;;;4209377;28;20485;-76
2024/01/30 08:05:40;;;;;;;8.33;4.20;;;4.30;99.90;;;;;;4213612;28;20448;-77
2024/01/30 08:07:42;;;;;;;8.07;4.20;;;4.50;99.90;;;;;;4213803;28;20456;-76
2024/01/30 08:09:43;;;;;;;7.40;3.70;;;4.40;99.90;;;;;;4212362;28;20493;-75
2024/01/30 08:11:45;;;;;;;8.10;4.03;;;4.40;99.90;;;;;;4212466;28;20460;-76
2024/01/30 08:13:47;;;;;;;11.13;4.03;;;4.40;99.90;;;;;;4211813;28;20208;-76
2024/01/30 08:15:49;;;;;;;8.27;4.10;;;4.50;99.90;;;;;;4194250;28;20504;-77
2024/01/30 08:17:55;;;;;;;8.80;4.67;;;4.50;99.90;;;;;;4212958;28;20497;-77
2024/01/30 08:19:57;;;;;;;8.33;3.70;;;4.50;99.90;;;;;;4196396;28;20486;-76
2024/01/30 08:22:01;;;;;;;9.83;4.60;;;4.60;99.90;;;;;;4211550;28;20537;-77
2024/01/30 08:24:04;;;;;;;8.77;4.30;;;4.60;99.90;;;;;;4213482;28;20501;-77
2024/01/30 08:26:06;;;;;;;12.27;4.33;;;4.60;99.90;;;;;;4196851;28;20450;-77
2024/01/30 08:28:08;;;;;;;8.90;4.23;;;4.70;99.90;;;;;;4193959;28;20476;-77
2024/01/30 08:30:11;;;;;;;10.40;4.03;;;4.80;99.90;;;;;;4212334;28;20493;-77
2024/01/30 08:32:13;;;;;;;7.10;3.67;;;4.80;99.90;;;;;;4212498;28;20450;-77
2024/01/30 08:34:15;;;;;;;10.60;3.97;;;4.80;99.90;;;;;;4212766;28;20446;-81
2024/01/30 08:36:17;;;;;;;8.33;3.90;;;4.90;99.90;;;;;;4216300;28;20516;-77
2024/01/30 08:38:20;;;;;;;8.67;4.07;;;4.90;99.90;;;;;;4213519;28;21019;-78
2024/01/30 08:40:22;;;;;;;9.07;4.13;;;5.00;99.90;;;;;;4211031;28;20436;-77
2024/01/30 08:42:25;;;;;;;8.30;3.90;;;5.00;99.90;;;;;;4195805;28;20451;-77
2024/01/30 08:44:27;;;;;;;7.67;4.13;;;5.00;99.90;;;;;;4205589;28;20958;-77
2024/01/30 08:46:30;;;;;;;7.97;3.80;;;5.00;99.90;;;;;;4197218;28;20994;-76
2024/01/30 08:48:32;;;;;;;11.23;4.43;;;5.10;99.90;;;;;;4213210;28;20491;-77
2024/01/30 08:50:34;;;;;;;9.17;4.07;;;5.10;99.90;;;;;;4211284;28;20483;-77
2024/01/30 08:52:36;;;;;;;8.77;4.00;;;5.20;99.90;;;;;;4192311;28;20460;-77
2024/01/30 08:54:42;;;;;;;10.93;4.73;;;5.30;99.90;;;;;;4211811;28;20470;-77
2024/01/30 08:56:44;;;;;;;7.33;4.10;;;5.20;99.90;;;;;;4210786;28;20440;-77
2024/01/30 08:58:46;;;;;;;10.17;4.13;;;5.30;99.90;;;;;;4195409;28;20478;-77
2024/01/30 09:00:48;;;;;;;7.57;4.10;;;5.40;99.90;;;;;;4209867;28;20446;-77
2024/01/30 09:02:50;;;;;;;8.73;4.03;;;5.40;99.90;;;;;;4206993;28;20516;-77
2024/01/30 09:04:51;;;;;;;7.67;4.30;;;5.40;99.90;;;;;;4203245;28;20498;-77
2024/01/30 09:06:53;;;;;;;12.27;4.23;;;5.40;99.90;;;;;;4213236;28;20544;-77
2024/01/30 09:08:57;;;;;;;13.73;4.70;;;5.50;99.90;;;;;;4208001;28;21095;-77
2024/01/30 09:11:01;;;;;;;9.10;4.23;;;5.60;99.90;;;;;;4196763;28;20454;-77
2024/01/30 09:13:03;;;;;;;9.10;3.53;;;5.60;99.90;;;;;;4213436;28;20458;-77
2024/01/30 09:15:05;;;;;;;9.50;4.10;;;5.70;99.90;;;;;;4212059;28;20822;-77
2024/01/30 09:17:06;;;;;;;9.93;4.17;;;5.70;99.90;;;;;;4210875;28;20449;-77
2024/01/30 09:19:08;;;;;;;10.17;4.17;;;5.80;99.90;;;;;;4209696;28;20473;-77
2024/01/30 09:21:11;;;;;;;9.27;4.17;;;5.90;99.90;;;;;;4198592;28;20643;-77
2024/01/30 09:23:14;;;;;;;10.63;4.80;;;6.00;99.90;;;;;;4198540;28;20550;-76
2024/01/30 09:25:16;;;;;;;11.93;4.50;;;6.00;99.90;;;;;;4210436;28;20282;-77
2024/01/30 09:27:18;;;;;;;11.80;4.90;;;6.10;99.90;;;;;;4210613;28;20292;-80
2024/01/30 09:29:21;;;;;;;9.30;4.47;;;6.10;99.90;;;;;;4209111;28;20569;-82
2024/01/30 09:31:24;;;;;;;8.47;4.37;;;6.20;99.90;;;;;;4209874;28;20443;-77
2024/01/30 09:33:26;;;;;;;10.93;4.37;;;6.30;99.90;;;;;;4202581;28;20460;-77
2024/01/30 09:35:28;;;;;;;11.60;4.97;;;6.30;99.90;;;;;;4212619;28;20471;-77
2024/01/30 09:37:30;;;;;;;9.87;4.50;;;6.40;99.90;;;;;;4213239;28;20301;-77
2024/01/30 09:39:32;;;;;;;8.53;4.47;;;6.40;99.90;;;;;;4213000;28;20506;-77
2024/01/30 09:41:42;;;;;;;8.97;4.30;;;6.50;99.90;;;;;;4207927;28;20209;-77
2024/01/30 09:43:49;;;;;;;9.20;4.50;;;6.50;99.90;;;;;;4210408;28;20247;-77
2024/01/30 09:45:52;;;;;;;10.93;4.73;;;6.60;99.90;;;;;;4210923;28;20263;-77
2024/01/30 09:47:54;;;;;;;8.87;4.43;;;6.70;99.90;;;;;;4212993;28;20454;-77
2024/01/30 09:49:57;;;;;;;9.57;4.30;;;6.80;99.90;;;;;;4211926;28;20495;-77
2024/01/30 09:51:59;;;;;;;10.07;4.53;;;6.80;99.90;;;;;;4196924;28;20217;-77
2024/01/30 09:54:02;;;;;;;9.30;4.30;;;6.90;99.90;;;;;;4216378;28;20210;-77
2024/01/30 09:56:06;;;;;;;9.63;4.27;;;7.00;99.90;;;;;;4218506;28;20202;-77
2024/01/30 09:58:08;;;;;;;8.10;4.67;;;7.00;99.90;;;;;;4209632;28;20259;-77
2024/01/30 10:00:13;;;;;;;7.60;4.20;;;7.10;99.90;;;;;;4195452;28;20225;-77
2024/01/30 10:02:15;;;;;;;10.37;4.60;;;7.20;99.90;;;;;;4209454;28;20213;-77
2024/01/30 10:04:20;;;;;;;8.53;4.50;;;7.30;99.90;;;;;;4209261;28;20240;-76
2024/01/30 10:06:25;;;;;;;10.03;4.60;;;7.40;99.90;;;;;;4188525;28;20212;-77
2024/01/30 10:08:29;;;;;;;9.23;4.80;;;7.40;99.90;;;;;;4207368;28;20218;-77
2024/01/30 10:10:31;;;;;;;10.97;4.83;;;7.40;99.90;;;;;;4206489;28;20227;-77
2024/01/30 10:12:33;;;;;;;9.23;4.80;;;7.50;99.90;;;;;;4211970;28;20209;-77
2024/01/30 10:14:38;;;;;;;9.40;4.37;;;7.60;99.90;;;;;;4208672;28;20295;-77
2024/01/30 10:16:41;;;;;;;12.07;5.17;;;7.60;99.90;;;;;;4212952;28;20670;-77
2024/01/30 10:18:43;;;;;;;8.80;4.60;;;7.70;99.90;;;;;;4212300;28;20225;-77
2024/01/30 10:20:45;;;;;;;12.40;4.73;;;7.80;99.90;;;;;;4187611;28;20264;-77
2024/01/30 10:22:47;;;;;;;11.90;4.53;;;7.80;99.90;;;;;;4196259;28;20234;-77
2024/01/30 10:24:53;;;;;;;10.77;4.90;;;7.90;99.90;;;;;;4207022;28;20252;-77
2024/01/30 10:26:56;;;;;;;9.10;4.70;;;8.00;99.90;;;;;;4210835;28;20222;-77
2024/01/30 10:28:58;;;;;;;10.33;4.83;;;8.00;99.90;;;;;;4212095;28;20217;-77
2024/01/30 10:31:00;;;;;;;10.63;4.73;;;8.10;99.90;;;;;;4212127;28;20213;-77
2024/01/30 10:33:04;;;;;;;10.20;4.57;;;8.10;99.90;;;;;;4198295;28;20211;-77
2024/01/30 10:35:06;;;;;;;13.23;4.40;;;8.20;99.90;;;;;;4206833;28;20207;-77
2024/01/30 10:37:12;;;;;;;8.73;4.57;;;8.30;99.90;;;;;;4202574;28;20242;-77
2024/01/30 10:39:18;;;;;;;9.67;4.70;;;8.30;99.90;;;;;;4213497;28;20677;-77
2024/01/30 10:41:27;;;;;;;9.63;4.57;;;8.40;99.90;;;;;;4203855;28;20204;-77
2024/01/30 10:43:34;;;;;;;9.40;4.53;;;8.40;99.90;;;;;;4211910;28;20216;-77